Highland Park, NJ

6:24 PM EDT on September 19, 2014 (GMT -0400)
River Road | Change Station
CLOSE
Current Station
Personal Weather Station
Location: Highland Park, NJ
Elevation: 46 ft
Nearby Weather Stations

Elev 46 ft 40.50 °N, 74.44 °W | Updated 3 minutes ago

Mostly Cloudy
Mostly Cloudy
64.2 °F
Feels Like 64.2 °F
N
0.7
Wind Variable Wind from SSW
Gusts 5.4 mph

Today
High -- | Low -- °F
--% Chance of Precip.
Yesterday
High -- | Low -- °F
Precip. -- in
6:42 AM 6:59 PM
Waning Crescent, 16% visible
Pressure 30.36 in
Visibility 10.0 miles
Clouds Clear
Dew Point 50 °F
Humidity 61%
Rainfall 0.00 in
Snow Depth Not available.
UV 0 out of 12
Pollen 3.10 out of 12
Air Quality Not available.
Flu Activity Not available.
METAR KLDJ 192215Z AUTO 15008KT 120V180 10SM CLR 19/11 A3036 RMK AO2 T01940109

More Conditions Fewer Conditions

Pressure 30.36 in
Visibility 10.0 miles
Clouds Clear
Dew Point 50 °F
Humidity 61%
Rainfall 0.00 in
Snow Depth Not available.
UV 0 out of 12
Pollen 3.10 out of 12
Air Quality Not available.
Flu Activity Not available.
METAR KLDJ 192215Z AUTO 15008KT 120V180 10SM CLR 19/11 A3036 RMK AO2 T01940109

More Conditions Fewer Conditions

10-Day Weather Forecast

Almanac

Astronomy

Sep. 19, 2014 Rise Set
Actual Time 6:42 AM EDT 6:59 PM EDT
Civil Twilight 6:15 AM EDT 7:27 PM EDT
Nautical Twilight 5:42 AM EDT 7:59 PM EDT
Astronomical Twilight 5:10 AM EDT 8:31 PM EDT
Moon 2:24 AM EDT 4:27 PM EDT
Length of Visible Light 13h 12m
Length of Day
12h 17m
Tomorrow will be 2m 40s shorter.
Waning Crescent, 16% of the Moon is Illuminated
Today
Waning Crescent
Sep 24
New
Oct 1
First Quarter
Oct 8
Full
Oct 15
Last Quarter

Today's Extremes

State Highs State Lows

Community

WunderPhotos

Upload Photos

1,754,721 photos uploaded!

WunderBlogs® & News

Nearby

Snow Depth

Station Depth Elevation
No new snow has been reported.

Earthquake Activity

City Distance Mag. Time & Date
No recent earthquake activity has been reported nearby.
Minimum magnitude displayed is 2.5.

Coastal Water Temperatures

Place Temperature
Sandy Hook, NJ 69.1 °F
The Battery, NY 71.1 °F
Bergen Point West Reach, NJ 70.0 °F

Nearby Weather Stations